Flight Track Log - Related Links

Times and Time Zones

All times are in EDT time to prevent confusion due to time zone crossing. See the DAL1118 flight status page for this flight to view local times or setup timezone preferences in your user account.

Time Position Orientation Groundspeed Altitude Reporting Facility
EDT Latitude Longitude Course Direction KTS MPH feet Rate Location/Type
Mon 10:54:05 PM 40.7758 -111.9756 56° Northeast 161 185 5,000  Level Salt Lake Center
Mon 10:55:00 PM 40.7567 -112.0217 241° Southwest 194 223 6,500 1,966 Climbing Salt Lake Center
Mon 10:56:01 PM 40.7794 -112.1047 290° West 285 328 8,800 2,277 Climbing Salt Lake Center
Mon 10:57:00 PM 41.0167 -112.1117 90° East  Level FlightAware Approximate
Mon 10:57:17 PM 40.8419 -112.1778 319° Northwest 286 329 11,700  Level Salt Lake Center
Mon 10:58:00 PM 41.0956 -111.9995 46° Northeast  Level FlightAware Approximate
Mon 10:58:19 PM 40.9383 -112.1711 North 332 382 15,800  Level Salt Lake Center
Mon 10:59:00 PM 41.1780 -111.8774 56° Northeast  Level FlightAware Approximate
Mon 10:59:20 PM 41.0078 -112.0856 43° Northeast 341 392 18,300  Level Salt Lake Center
Mon 11:00:22 PM 41.0825 -111.9928 43° Northeast 364 419 20,100 1,258 Climbing Salt Lake Center
Mon 11:01:24 PM 41.1875 -111.9336 23° Northeast 409 471 20,900 871 Climbing Salt Lake Center
Mon 11:02:26 PM 41.3058 -111.8772 20° North 450 518 21,900 1,258 Climbing Salt Lake Center
Mon 11:03:28 PM 41.4294 -111.8189 19° North 469 540 23,500 1,463 Climbing Salt Lake Center
Mon 11:04:29 PM 41.5567 -111.7581 20° North 486 559 24,900 1,512 Climbing Salt Lake Center
Mon 11:05:31 PM 41.6856 -111.6958 20° North 492 566 26,600 1,610 Climbing Salt Lake Center
Mon 11:06:32 PM 41.8156 -111.6325 20° North 496 571 28,200 1,512 Climbing Salt Lake Center
Mon 11:07:34 PM 41.9464 -111.5706 19° North 496 571 29,700 1,366 Climbing Salt Lake Center
Mon 11:08:35 PM 42.1019 -111.4942 20° North 495 570 31,000 634 Climbing Salt Lake Center
Mon 11:09:37 PM 42.2317 -111.4317 20° North 495 570 31,000  Level Salt Lake Center
Mon 11:10:38 PM 42.3608 -111.3681 20° North 495 570 31,000  Level Salt Lake Center
Mon 11:11:40 PM 42.4906 -111.3033 20° North 496 571 31,000 -927 Level Salt Lake Center
Mon 11:12:41 PM 42.6175 -111.2408 20° North 489 563 29,100 -2,537 Descending Salt Lake Center
Mon 11:13:43 PM 42.7525 -111.1733 20° North 492 566 25,800 -2,829 Descending Salt Lake Center
Mon 11:14:44 PM 42.8700 -111.1142 20° North 475 547 23,300 -2,829 Descending Salt Lake Center
Mon 11:15:46 PM 42.9969 -111.0497 20° North 462 532 20,000 -2,732 Descending Salt Lake Center
Mon 11:16:47 PM 43.1150 -110.9914 20° North 452 520 17,700 -1,967 Descending Salt Lake Center
Mon 11:17:48 PM 43.2231 -110.9211 25° Northeast 435 501 16,000 -1,463 Descending Salt Lake Center
Mon 11:18:50 PM 43.3222 -110.8450 29° Northeast 416 479 14,700 -1,268 Descending Salt Lake Center
Mon 11:19:51 PM 43.4117 -110.7761 29° Northeast 376 433 13,400 -585 Descending Salt Lake Center
Mon 11:20:53 PM 43.5094 -110.6983 30° Northeast 345 397 13,500 293 Climbing Salt Lake Center
Mon 11:21:54 PM 43.5636 -110.6283 43° Northeast 284 327 14,000 246 Climbing Salt Lake Center
Mon 11:22:55 PM 43.5906 -110.5297 69° East 278 320 14,000  Level Salt Lake Center
Mon 11:23:57 PM 43.6181 -110.4297 69° East 279 321 14,000  Level Salt Lake Center
Mon 11:24:58 PM 43.6439 -110.3411 68° East 253 291 14,000  Level Salt Lake Center
Mon 11:26:00 PM 43.6683 -110.2600 67° East 231 266 14,000 -98 Level Salt Lake Center
Mon 11:27:01 PM 43.7136 -110.1847 50° Northeast 236 272 13,800 -146 Descending Salt Lake Center
Mon 11:28:03 PM 43.7614 -110.2378 321° Northwest 226 260 13,700 -732 Descending Salt Lake Center
Mon 11:29:04 PM 43.8033 -110.2986 314° West 220 253 12,300 -984 Descending Salt Lake Center
Mon 11:30:05 PM 43.8183 -110.3578 289° West 253 291 11,700 -585 Descending Salt Lake Center
Mon 11:31:07 PM 43.8214 -110.4444 273° West 200 230 11,100 -341 Descending Salt Lake Center
Mon 11:32:08 PM 43.8144 -110.5242 263° West 207 238 11,000 -98 Descending Salt Lake Center

Login

Don't have an account? Register now (free) for customized features, flight alerts, and more!